sensor_id;sensor_type;location;lat;lon;timestamp;P1;durP1;ratioP1;P2;durP2;ratioP2
9310;SDS011;4694;52.464;13.480;2022-10-18T05:47:29;22.30;;;12.73;;
9310;SDS011;4694;52.464;13.480;2022-10-18T05:49:56;21.60;;;14.05;;
9310;SDS011;4694;52.464;13.480;2022-10-18T05:52:23;20.63;;;13.80;;
9310;SDS011;4694;52.464;13.480;2022-10-18T05:54:50;20.60;;;13.55;;
9310;SDS011;4694;52.464;13.480;2022-10-18T05:57:17;23.70;;;14.27;;
9310;SDS011;4694;52.464;13.480;2022-10-18T05:59:44;20.50;;;13.98;;
9310;SDS011;4694;52.464;13.480;2022-10-18T06:02:11;27.60;;;15.55;;
9310;SDS011;4694;52.464;13.480;2022-10-18T06:04:39;29.75;;;15.07;;
9310;SDS011;4694;52.464;13.480;2022-10-18T06:07:07;25.88;;;15.57;;
9310;SDS011;4694;52.464;13.480;2022-10-18T06:09:35;24.50;;;15.32;;
9310;SDS011;4694;52.464;13.480;2022-10-18T06:12:02;27.75;;;16.92;;
9310;SDS011;4694;52.464;13.480;2022-10-18T06:14:29;30.20;;;17.40;;
9310;SDS011;4694;52.464;13.480;2022-10-18T06:16:56;22.33;;;14.32;;
9310;SDS011;4694;52.464;13.480;2022-10-18T06:19:24;28.15;;;16.00;;
9310;SDS011;4694;52.464;13.480;2022-10-18T06:21:53;26.30;;;15.27;;
9310;SDS011;4694;52.464;13.480;2022-10-18T06:24:20;21.67;;;15.70;;
9310;SDS011;4694;52.464;13.480;2022-10-18T06:26:47;25.77;;;16.10;;
9310;SDS011;4694;52.464;13.480;2022-10-18T06:29:14;22.50;;;14.27;;
9310;SDS011;4694;52.464;13.480;2022-10-18T06:31:41;26.15;;;14.50;;
9310;SDS011;4694;52.464;13.480;2022-10-18T06:34:08;21.52;;;14.95;;
9310;SDS011;4694;52.464;13.480;2022-10-18T06:36:35;26.55;;;16.30;;
9310;SDS011;4694;52.464;13.480;2022-10-18T06:39:04;27.73;;;15.63;;
9310;SDS011;4694;52.464;13.480;2022-10-18T06:41:31;22.50;;;14.90;;
9310;SDS011;4694;52.464;13.480;2022-10-18T06:43:58;21.80;;;13.85;;
9310;SDS011;4694;52.464;13.480;2022-10-18T06:46:31;31.58;;;14.98;;
9310;SDS011;4694;52.464;13.480;2022-10-18T06:48:58;26.10;;;15.60;;
9310;SDS011;4694;52.464;13.480;2022-10-18T06:51:25;30.15;;;15.57;;
9310;SDS011;4694;52.464;13.480;2022-10-18T06:53:53;22.20;;;15.93;;
9310;SDS011;4694;52.464;13.480;2022-10-18T06:56:22;24.13;;;16.20;;
9310;SDS011;4694;52.464;13.480;2022-10-18T06:58:50;20.13;;;14.75;;
9310;SDS011;4694;52.464;13.480;2022-10-18T07:01:17;26.65;;;15.52;;
9310;SDS011;4694;52.464;13.480;2022-10-18T07:03:45;22.17;;;16.25;;
9310;SDS011;4694;52.464;13.480;2022-10-18T07:06:15;22.25;;;13.60;;
9310;SDS011;4694;52.464;13.480;2022-10-18T07:08:43;29.60;;;15.68;;
9310;SDS011;4694;52.464;13.480;2022-10-18T07:11:13;28.02;;;15.73;;
9310;SDS011;4694;52.464;13.480;2022-10-18T07:13:41;30.20;;;17.55;;
9310;SDS011;4694;52.464;13.480;2022-10-18T07:16:09;21.77;;;13.70;;
9310;SDS011;4694;52.464;13.480;2022-10-18T07:18:37;28.92;;;18.55;;
9310;SDS011;4694;52.464;13.480;2022-10-18T07:21:06;23.80;;;16.17;;
9310;SDS011;4694;52.464;13.480;2022-10-18T07:23:34;83.18;;;54.28;;
9310;SDS011;4694;52.464;13.480;2022-10-18T07:26:03;26.65;;;16.23;;
9310;SDS011;4694;52.464;13.480;2022-10-18T07:28:31;34.67;;;17.08;;
9310;SDS011;4694;52.464;13.480;2022-10-18T07:31:04;27.13;;;17.25;;
9310;SDS011;4694;52.464;13.480;2022-10-18T07:33:32;27.33;;;17.75;;
9310;SDS011;4694;52.464;13.480;2022-10-18T07:36:02;33.88;;;20.58;;
9310;SDS011;4694;52.464;13.480;2022-10-18T07:38:30;31.90;;;17.70;;
9310;SDS011;4694;52.464;13.480;2022-10-18T07:40:58;21.95;;;14.93;;
9310;SDS011;4694;52.464;13.480;2022-10-18T07:43:26;26.33;;;15.15;;
9310;SDS011;4694;52.464;13.480;2022-10-18T07:45:56;26.45;;;17.45;;
9310;SDS011;4694;52.464;13.480;2022-10-18T07:48:25;27.38;;;15.93;;
9310;SDS011;4694;52.464;13.480;2022-10-18T07:50:59;28.23;;;17.08;;
9310;SDS011;4694;52.464;13.480;2022-10-18T07:53:28;23.63;;;14.82;;
9310;SDS011;4694;52.464;13.480;2022-10-18T07:55:58;26.90;;;15.93;;
9310;SDS011;4694;52.464;13.480;2022-10-18T07:58:25;23.45;;;16.08;;
9310;SDS011;4694;52.464;13.480;2022-10-18T08:00:53;25.38;;;16.88;;
9310;SDS011;4694;52.464;13.480;2022-10-18T08:03:20;24.48;;;16.23;;
9310;SDS011;4694;52.464;13.480;2022-10-18T08:05:51;22.30;;;15.65;;
9310;SDS011;4694;52.464;13.480;2022-10-18T08:08:18;24.65;;;15.48;;
9310;SDS011;4694;52.464;13.480;2022-10-18T08:10:45;27.55;;;17.08;;
9310;SDS011;4694;52.464;13.480;2022-10-18T08:13:12;28.63;;;16.58;;
9310;SDS011;4694;52.464;13.480;2022-10-18T08:15:39;22.50;;;14.88;;
9310;SDS011;4694;52.464;13.480;2022-10-18T08:18:06;25.75;;;14.38;;
9310;SDS011;4694;52.464;13.480;2022-10-18T08:20:33;27.90;;;14.32;;
9310;SDS011;4694;52.464;13.480;2022-10-18T08:23:02;22.27;;;13.88;;
9310;SDS011;4694;52.464;13.480;2022-10-18T08:25:29;41.90;;;21.88;;
9310;SDS011;4694;52.464;13.480;2022-10-18T08:27:56;24.35;;;15.30;;
9310;SDS011;4694;52.464;13.480;2022-10-18T08:30:25;21.77;;;14.57;;
9310;SDS011;4694;52.464;13.480;2022-10-18T08:32:52;27.88;;;16.42;;
9310;SDS011;4694;52.464;13.480;2022-10-18T08:35:19;26.52;;;14.82;;
9310;SDS011;4694;52.464;13.480;2022-10-18T08:37:46;22.70;;;12.65;;
9310;SDS011;4694;52.464;13.480;2022-10-18T08:40:14;20.90;;;12.98;;
9310;SDS011;4694;52.464;13.480;2022-10-18T08:42:45;19.13;;;11.25;;
9310;SDS011;4694;52.464;13.480;2022-10-18T08:45:16;21.65;;;15.18;;
9310;SDS011;4694;52.464;13.480;2022-10-18T08:47:44;25.08;;;14.82;;
9310;SDS011;4694;52.464;13.480;2022-10-18T08:50:13;17.65;;;11.77;;
9310;SDS011;4694;52.464;13.480;2022-10-18T08:52:42;16.42;;;11.40;;
9310;SDS011;4694;52.464;13.480;2022-10-18T08:55:11;16.33;;;10.35;;
9310;SDS011;4694;52.464;13.480;2022-10-18T08:57:40;18.98;;;10.75;;
9310;SDS011;4694;52.464;13.480;2022-10-18T09:00:12;19.30;;;10.65;;
9310;SDS011;4694;52.464;13.480;2022-10-18T09:02:42;12.88;;;8.70;;
9310;SDS011;4694;52.464;13.480;2022-10-18T09:05:17;11.05;;;5.70;;
9310;SDS011;4694;52.464;13.480;2022-10-18T09:07:58;8.07;;;4.22;;
9310;SDS011;4694;52.464;13.480;2022-10-18T09:10:37;11.75;;;4.15;;
9310;SDS011;4694;52.464;13.480;2022-10-18T09:13:12;9.25;;;5.45;;
9310;SDS011;4694;52.464;13.480;2022-10-18T09:15:43;10.15;;;5.85;;
9310;SDS011;4694;52.464;13.480;2022-10-18T09:18:18;11.43;;;6.30;;
9310;SDS011;4694;52.464;13.480;2022-10-18T09:20:48;12.73;;;7.32;;
9310;SDS011;4694;52.464;13.480;2022-10-18T09:23:17;11.20;;;7.90;;
9310;SDS011;4694;52.464;13.480;2022-10-18T09:25:45;19.00;;;11.23;;
9310;SDS011;4694;52.464;13.480;2022-10-18T09:28:18;16.80;;;10.18;;
9310;SDS011;4694;52.464;13.480;2022-10-18T09:30:48;17.73;;;10.75;;
9310;SDS011;4694;52.464;13.480;2022-10-18T09:35:59;18.88;;;9.73;;
9310;SDS011;4694;52.464;13.480;2022-10-18T09:38:29;21.88;;;12.20;;
9310;SDS011;4694;52.464;13.480;2022-10-18T09:40:57;18.23;;;10.97;;
9310;SDS011;4694;52.464;13.480;2022-10-18T09:43:33;16.10;;;10.50;;
9310;SDS011;4694;52.464;13.480;2022-10-18T09:46:01;15.07;;;9.75;;
9310;SDS011;4694;52.464;13.480;2022-10-18T09:48:30;17.17;;;9.68;;
9310;SDS011;4694;52.464;13.480;2022-10-18T09:50:59;16.02;;;11.27;;
9310;SDS011;4694;52.464;13.480;2022-10-18T09:53:29;17.03;;;9.27;;
9310;SDS011;4694;52.464;13.480;2022-10-18T09:56:01;16.42;;;9.23;;
9310;SDS011;4694;52.464;13.480;2022-10-18T09:58:35;14.90;;;9.15;;
9310;SDS011;4694;52.464;13.480;2022-10-18T10:01:04;12.90;;;9.48;;
9310;SDS011;4694;52.464;13.480;2022-10-18T10:03:32;15.48;;;9.63;;
9310;SDS011;4694;52.464;13.480;2022-10-18T10:06:00;17.95;;;11.25;;
9310;SDS011;4694;52.464;13.480;2022-10-18T10:08:30;16.75;;;9.48;;
9310;SDS011;4694;52.464;13.480;2022-10-18T10:10:58;18.73;;;12.43;;
9310;SDS011;4694;52.464;13.480;2022-10-18T10:13:25;20.38;;;11.07;;
9310;SDS011;4694;52.464;13.480;2022-10-18T10:15:54;21.30;;;13.32;;
9310;SDS011;4694;52.464;13.480;2022-10-18T10:18:22;14.95;;;10.10;;
9310;SDS011;4694;52.464;13.480;2022-10-18T10:20:51;16.35;;;10.30;;
9310;SDS011;4694;52.464;13.480;2022-10-18T10:23:19;17.15;;;10.65;;
9310;SDS011;4694;52.464;13.480;2022-10-18T10:25:49;16.85;;;9.68;;
9310;SDS011;4694;52.464;13.480;2022-10-18T10:28:17;18.43;;;10.03;;
9310;SDS011;4694;52.464;13.480;2022-10-18T10:30:45;20.00;;;11.52;;
9310;SDS011;4694;52.464;13.480;2022-10-18T10:35:58;16.73;;;9.93;;
9310;SDS011;4694;52.464;13.480;2022-10-18T10:38:27;16.80;;;11.27;;
9310;SDS011;4694;52.464;13.480;2022-10-18T10:40:55;20.50;;;11.65;;
9310;SDS011;4694;52.464;13.480;2022-10-18T10:43:23;19.20;;;11.07;;
9310;SDS011;4694;52.464;13.480;2022-10-18T10:45:56;18.20;;;11.25;;
9310;SDS011;4694;52.464;13.480;2022-10-18T10:48:23;22.05;;;11.57;;
9310;SDS011;4694;52.464;13.480;2022-10-18T10:50:52;21.02;;;12.10;;
9310;SDS011;4694;52.464;13.480;2022-10-18T10:53:26;19.98;;;11.93;;
9310;SDS011;4694;52.464;13.480;2022-10-18T10:55:54;21.67;;;13.18;;
9310;SDS011;4694;52.464;13.480;2022-10-18T10:58:21;21.85;;;11.77;;
9310;SDS011;4694;52.464;13.480;2022-10-18T11:00:49;20.35;;;11.55;;
9310;SDS011;4694;52.464;13.480;2022-10-18T11:03:17;23.42;;;12.27;;
9310;SDS011;4694;52.464;13.480;2022-10-18T11:05:45;19.90;;;12.32;;
9310;SDS011;4694;52.464;13.480;2022-10-18T11:08:14;25.25;;;13.02;;
9310;SDS011;4694;52.464;13.480;2022-10-18T11:10:49;26.98;;;13.73;;
9310;SDS011;4694;52.464;13.480;2022-10-18T11:13:22;19.42;;;12.48;;
9310;SDS011;4694;52.464;13.480;2022-10-18T11:15:51;21.58;;;12.90;;
9310;SDS011;4694;52.464;13.480;2022-10-18T11:18:21;20.25;;;12.38;;
9310;SDS011;4694;52.464;13.480;2022-10-18T11:20:52;20.08;;;12.20;;
9310;SDS011;4694;52.464;13.480;2022-10-18T11:25:59;22.13;;;12.07;;
9310;SDS011;4694;52.464;13.480;2022-10-18T11:28:33;20.33;;;12.40;;
9310;SDS011;4694;52.464;13.480;2022-10-18T11:31:06;23.38;;;12.50;;
9310;SDS011;4694;52.464;13.480;2022-10-18T11:33:39;23.52;;;12.98;;
9310;SDS011;4694;52.464;13.480;2022-10-18T11:36:09;19.83;;;13.70;;
9310;SDS011;4694;52.464;13.480;2022-10-18T11:38:41;23.48;;;13.82;;
9310;SDS011;4694;52.464;13.480;2022-10-18T11:43:39;20.70;;;13.77;;
9310;SDS011;4694;52.464;13.480;2022-10-18T11:46:10;22.05;;;13.48;;
9310;SDS011;4694;52.464;13.480;2022-10-18T11:48:43;24.08;;;14.88;;
9310;SDS011;4694;52.464;13.480;2022-10-18T11:51:15;26.38;;;16.00;;
9310;SDS011;4694;52.464;13.480;2022-10-18T11:53:53;19.90;;;12.18;;
9310;SDS011;4694;52.464;13.480;2022-10-18T11:56:22;15.88;;;11.93;;
9310;SDS011;4694;52.464;13.480;2022-10-18T11:58:58;20.40;;;12.88;;
9310;SDS011;4694;52.464;13.480;2022-10-18T12:01:31;21.33;;;13.63;;
9310;SDS011;4694;52.464;13.480;2022-10-18T12:04:00;27.60;;;14.37;;
9310;SDS011;4694;52.464;13.480;2022-10-18T12:08:56;30.70;;;18.85;;
9310;SDS011;4694;52.464;13.480;2022-10-18T12:11:26;31.97;;;20.77;;
9310;SDS011;4694;52.464;13.480;2022-10-18T12:13:56;33.22;;;20.63;;
9310;SDS011;4694;52.464;13.480;2022-10-18T12:16:26;24.83;;;15.43;;
9310;SDS011;4694;52.464;13.480;2022-10-18T12:18:54;21.02;;;14.85;;
9310;SDS011;4694;52.464;13.480;2022-10-18T12:21:23;15.48;;;11.05;;
9310;SDS011;4694;52.464;13.480;2022-10-18T12:23:52;17.77;;;12.13;;
9310;SDS011;4694;52.464;13.480;2022-10-18T12:26:20;19.63;;;12.25;;
9310;SDS011;4694;52.464;13.480;2022-10-18T12:28:53;18.27;;;13.55;;
9310;SDS011;4694;52.464;13.480;2022-10-18T12:31:25;18.17;;;12.55;;
9310;SDS011;4694;52.464;13.480;2022-10-18T12:33:55;17.55;;;12.90;;
9310;SDS011;4694;52.464;13.480;2022-10-18T12:36:31;17.52;;;12.50;;
9310;SDS011;4694;52.464;13.480;2022-10-18T12:39:04;16.80;;;12.13;;
9310;SDS011;4694;52.464;13.480;2022-10-18T12:41:33;14.07;;;9.75;;
9310;SDS011;4694;52.464;13.480;2022-10-18T12:44:02;14.63;;;9.85;;
9310;SDS011;4694;52.464;13.480;2022-10-18T12:46:42;16.38;;;11.60;;
9310;SDS011;4694;52.464;13.480;2022-10-18T12:51:43;16.20;;;11.50;;
9310;SDS011;4694;52.464;13.480;2022-10-18T12:54:15;12.00;;;9.73;;
9310;SDS011;4694;52.464;13.480;2022-10-18T12:56:43;13.30;;;8.68;;
9310;SDS011;4694;52.464;13.480;2022-10-18T13:04:43;16.70;;;11.50;;
9310;SDS011;4694;52.464;13.480;2022-10-18T13:07:15;15.10;;;10.45;;
9310;SDS011;4694;52.464;13.480;2022-10-18T13:12:45;15.57;;;9.43;;
9310;SDS011;4694;52.464;13.480;2022-10-18T13:15:23;14.27;;;8.85;;
9310;SDS011;4694;52.464;13.480;2022-10-18T13:17:57;15.38;;;10.90;;
9310;SDS011;4694;52.464;13.480;2022-10-18T13:20:27;14.43;;;9.07;;
9310;SDS011;4694;52.464;13.480;2022-10-18T13:23:00;13.73;;;10.23;;
9310;SDS011;4694;52.464;13.480;2022-10-18T13:25:30;13.35;;;10.52;;
9310;SDS011;4694;52.464;13.480;2022-10-18T13:28:04;14.75;;;10.32;;
9310;SDS011;4694;52.464;13.480;2022-10-18T13:30:44;13.35;;;10.05;;
9310;SDS011;4694;52.464;13.480;2022-10-18T13:33:18;17.58;;;12.38;;
9310;SDS011;4694;52.464;13.480;2022-10-18T13:35:53;15.30;;;10.07;;
9310;SDS011;4694;52.464;13.480;2022-10-18T13:41:03;15.40;;;11.15;;
9310;SDS011;4694;52.464;13.480;2022-10-18T13:46:17;15.70;;;10.02;;
9310;SDS011;4694;52.464;13.480;2022-10-18T13:48:45;16.48;;;9.73;;
9310;SDS011;4694;52.464;13.480;2022-10-18T13:51:21;13.60;;;9.07;;
9310;SDS011;4694;52.464;13.480;2022-10-18T13:56:24;12.65;;;8.38;;
9310;SDS011;4694;52.464;13.480;2022-10-18T13:58:58;15.30;;;8.40;;
9310;SDS011;4694;52.464;13.480;2022-10-18T14:01:30;9.95;;;7.53;;
9310;SDS011;4694;52.464;13.480;2022-10-18T14:04:06;9.55;;;7.88;;
9310;SDS011;4694;52.464;13.480;2022-10-18T14:06:39;8.07;;;6.55;;
9310;SDS011;4694;52.464;13.480;2022-10-18T14:09:10;8.90;;;6.10;;
9310;SDS011;4694;52.464;13.480;2022-10-18T14:11:39;12.05;;;7.93;;
9310;SDS011;4694;52.464;13.480;2022-10-18T14:14:12;11.38;;;6.45;;
9310;SDS011;4694;52.464;13.480;2022-10-18T14:16:42;10.57;;;7.88;;
9310;SDS011;4694;52.464;13.480;2022-10-18T14:19:12;13.23;;;8.80;;
9310;SDS011;4694;52.464;13.480;2022-10-18T14:21:42;12.65;;;8.63;;
9310;SDS011;4694;52.464;13.480;2022-10-18T14:24:14;12.75;;;8.20;;
9310;SDS011;4694;52.464;13.480;2022-10-18T14:26:42;11.85;;;9.10;;
9310;SDS011;4694;52.464;13.480;2022-10-18T14:29:15;12.88;;;9.20;;
9310;SDS011;4694;52.464;13.480;2022-10-18T14:31:42;10.32;;;8.13;;
9310;SDS011;4694;52.464;13.480;2022-10-18T14:34:14;9.88;;;8.05;;
9310;SDS011;4694;52.464;13.480;2022-10-18T14:36:44;12.30;;;7.90;;
9310;SDS011;4694;52.464;13.480;2022-10-18T14:39:16;14.40;;;7.75;;
9310;SDS011;4694;52.464;13.480;2022-10-18T14:41:47;18.48;;;8.88;;
9310;SDS011;4694;52.464;13.480;2022-10-18T14:46:42;15.57;;;10.20;;
9310;SDS011;4694;52.464;13.480;2022-10-18T14:49:10;13.02;;;8.05;;
9310;SDS011;4694;52.464;13.480;2022-10-18T14:51:38;14.38;;;9.18;;
9310;SDS011;4694;52.464;13.480;2022-10-18T14:54:06;11.48;;;9.57;;
9310;SDS011;4694;52.464;13.480;2022-10-18T14:56:38;15.70;;;10.38;;
9310;SDS011;4694;52.464;13.480;2022-10-18T14:59:08;14.15;;;8.70;;
9310;SDS011;4694;52.464;13.480;2022-10-18T15:04:04;17.27;;;10.45;;
9310;SDS011;4694;52.464;13.480;2022-10-18T15:06:32;15.77;;;11.02;;
9310;SDS011;4694;52.464;13.480;2022-10-18T15:09:00;16.80;;;10.65;;
9310;SDS011;4694;52.464;13.480;2022-10-18T15:11:29;22.80;;;10.52;;
9310;SDS011;4694;52.464;13.480;2022-10-18T15:13:58;14.10;;;11.13;;
9310;SDS011;4694;52.464;13.480;2022-10-18T15:16:28;15.43;;;10.02;;
9310;SDS011;4694;52.464;13.480;2022-10-18T15:19:00;18.27;;;11.50;;
9310;SDS011;4694;52.464;13.480;2022-10-18T15:21:28;17.38;;;10.82;;
9310;SDS011;4694;52.464;13.480;2022-10-18T15:23:55;16.20;;;10.68;;
9310;SDS011;4694;52.464;13.480;2022-10-18T15:26:43;17.52;;;11.25;;
9310;SDS011;4694;52.464;13.480;2022-10-18T15:29:14;19.92;;;12.57;;
9310;SDS011;4694;52.464;13.480;2022-10-18T15:31:41;20.92;;;12.43;;
9310;SDS011;4694;52.464;13.480;2022-10-18T15:34:09;20.27;;;11.35;;
9310;SDS011;4694;52.464;13.480;2022-10-18T15:36:36;18.77;;;13.35;;
9310;SDS011;4694;52.464;13.480;2022-10-18T15:39:05;23.20;;;11.05;;
9310;SDS011;4694;52.464;13.480;2022-10-18T15:41:36;17.42;;;12.45;;
9310;SDS011;4694;52.464;13.480;2022-10-18T15:44:14;14.70;;;11.23;;
9310;SDS011;4694;52.464;13.480;2022-10-18T15:46:44;19.80;;;11.85;;
9310;SDS011;4694;52.464;13.480;2022-10-18T15:54:48;16.33;;;10.95;;
9310;SDS011;4694;52.464;13.480;2022-10-18T15:57:15;20.60;;;12.73;;
9310;SDS011;4694;52.464;13.480;2022-10-18T15:59:50;22.00;;;12.80;;
9310;SDS011;4694;52.464;13.480;2022-10-18T16:02:17;22.90;;;12.52;;
9310;SDS011;4694;52.464;13.480;2022-10-18T16:04:44;20.40;;;13.48;;
9310;SDS011;4694;52.464;13.480;2022-10-18T16:07:11;23.60;;;13.10;;
9310;SDS011;4694;52.464;13.480;2022-10-18T16:09:39;28.13;;;13.60;;
9310;SDS011;4694;52.464;13.480;2022-10-18T16:12:06;24.45;;;12.50;;
9310;SDS011;4694;52.464;13.480;2022-10-18T16:14:33;25.98;;;12.65;;
9310;SDS011;4694;52.464;13.480;2022-10-18T16:17:02;21.92;;;14.05;;
9310;SDS011;4694;52.464;13.480;2022-10-18T16:19:29;44.35;;;15.80;;
9310;SDS011;4694;52.464;13.480;2022-10-18T16:21:56;24.00;;;12.55;;
9310;SDS011;4694;52.464;13.480;2022-10-18T16:24:24;24.77;;;13.27;;
9310;SDS011;4694;52.464;13.480;2022-10-18T16:26:51;23.65;;;14.27;;
9310;SDS011;4694;52.464;13.480;2022-10-18T16:29:19;28.45;;;14.85;;
9310;SDS011;4694;52.464;13.480;2022-10-18T16:31:48;27.17;;;13.00;;
9310;SDS011;4694;52.464;13.480;2022-10-18T16:34:18;25.70;;;14.52;;
9310;SDS011;4694;52.464;13.480;2022-10-18T16:36:45;26.75;;;16.05;;
9310;SDS011;4694;52.464;13.480;2022-10-18T16:39:14;28.00;;;16.38;;
9310;SDS011;4694;52.464;13.480;2022-10-18T16:41:41;35.90;;;18.25;;
9310;SDS011;4694;52.464;13.480;2022-10-18T16:44:08;33.88;;;18.77;;
9310;SDS011;4694;52.464;13.480;2022-10-18T16:46:35;24.65;;;16.10;;
9310;SDS011;4694;52.464;13.480;2022-10-18T16:49:03;32.08;;;17.30;;
9310;SDS011;4694;52.464;13.480;2022-10-18T16:51:31;31.80;;;17.45;;
9310;SDS011;4694;52.464;13.480;2022-10-18T16:53:58;27.27;;;17.27;;
9310;SDS011;4694;52.464;13.480;2022-10-18T16:56:26;34.08;;;18.10;;
9310;SDS011;4694;52.464;13.480;2022-10-18T16:58:54;34.38;;;18.45;;
9310;SDS011;4694;52.464;13.480;2022-10-18T17:01:22;30.30;;;17.60;;
9310;SDS011;4694;52.464;13.480;2022-10-18T17:03:49;36.35;;;18.95;;
9310;SDS011;4694;52.464;13.480;2022-10-18T17:06:17;33.17;;;17.67;;
9310;SDS011;4694;52.464;13.480;2022-10-18T17:08:46;35.15;;;17.83;;
9310;SDS011;4694;52.464;13.480;2022-10-18T17:11:14;29.52;;;15.82;;
9310;SDS011;4694;52.464;13.480;2022-10-18T17:13:41;29.58;;;18.30;;
9310;SDS011;4694;52.464;13.480;2022-10-18T17:16:10;29.50;;;17.77;;
9310;SDS011;4694;52.464;13.480;2022-10-18T17:18:44;32.90;;;19.98;;
9310;SDS011;4694;52.464;13.480;2022-10-18T17:21:11;29.30;;;18.63;;
9310;SDS011;4694;52.464;13.480;2022-10-18T17:23:38;38.15;;;21.10;;
9310;SDS011;4694;52.464;13.480;2022-10-18T17:26:07;34.67;;;19.55;;
9310;SDS011;4694;52.464;13.480;2022-10-18T17:28:35;37.45;;;20.73;;
9310;SDS011;4694;52.464;13.480;2022-10-18T17:31:04;34.70;;;18.42;;
9310;SDS011;4694;52.464;13.480;2022-10-18T17:33:31;40.40;;;26.13;;
9310;SDS011;4694;52.464;13.480;2022-10-18T17:35:58;30.58;;;19.77;;
9310;SDS011;4694;52.464;13.480;2022-10-18T17:38:25;35.40;;;20.08;;
9310;SDS011;4694;52.464;13.480;2022-10-18T17:40:52;35.38;;;20.35;;
9310;SDS011;4694;52.464;13.480;2022-10-18T17:43:20;41.95;;;21.77;;
9310;SDS011;4694;52.464;13.480;2022-10-18T17:45:47;33.58;;;20.67;;
9310;SDS011;4694;52.464;13.480;2022-10-18T17:48:15;38.65;;;20.15;;
9310;SDS011;4694;52.464;13.480;2022-10-18T17:50:42;39.80;;;20.25;;
9310;SDS011;4694;52.464;13.480;2022-10-18T17:53:09;40.03;;;20.50;;
9310;SDS011;4694;52.464;13.480;2022-10-18T17:55:37;39.05;;;20.60;;
9310;SDS011;4694;52.464;13.480;2022-10-18T17:58:04;37.92;;;23.50;;
9310;SDS011;4694;52.464;13.480;2022-10-18T18:00:32;44.13;;;22.65;;
9310;SDS011;4694;52.464;13.480;2022-10-18T18:05:29;34.65;;;22.20;;
9310;SDS011;4694;52.464;13.480;2022-10-18T18:07:56;34.15;;;20.88;;
9310;SDS011;4694;52.464;13.480;2022-10-18T18:10:23;40.42;;;20.67;;
9310;SDS011;4694;52.464;13.480;2022-10-18T18:12:50;36.33;;;20.55;;
9310;SDS011;4694;52.464;13.480;2022-10-18T18:15:18;43.15;;;23.02;;
9310;SDS011;4694;52.464;13.480;2022-10-18T18:17:46;39.05;;;22.67;;
9310;SDS011;4694;52.464;13.480;2022-10-18T18:20:13;43.97;;;23.70;;
9310;SDS011;4694;52.464;13.480;2022-10-18T18:22:40;43.20;;;25.35;;
9310;SDS011;4694;52.464;13.480;2022-10-18T18:25:07;44.05;;;23.40;;
9310;SDS011;4694;52.464;13.480;2022-10-18T18:27:34;47.65;;;27.23;;
9310;SDS011;4694;52.464;13.480;2022-10-18T18:30:03;42.67;;;23.98;;
9310;SDS011;4694;52.464;13.480;2022-10-18T18:32:32;41.38;;;23.42;;
9310;SDS011;4694;52.464;13.480;2022-10-18T18:35:01;42.88;;;23.52;;
9310;SDS011;4694;52.464;13.480;2022-10-18T18:37:29;52.03;;;23.55;;
